sensor_id;sensor_type;location;lat;lon;timestamp;temperature;humidity
76878;DHT22;65843;50.692;12.844;2022-12-10T12:52:37;18.20;56.90
76878;DHT22;65843;50.692;12.844;2022-12-10T12:52:49;18.30;56.60
76878;DHT22;65843;50.692;12.844;2022-12-10T12:53:02;18.30;55.90
76878;DHT22;65843;50.692;12.844;2022-12-10T12:53:15;18.40;55.50
76878;DHT22;65843;50.692;12.844;2022-12-10T12:53:27;18.40;55.30
76878;DHT22;65843;50.692;12.844;2022-12-10T12:53:38;18.40;55.20
76878;DHT22;65843;50.692;12.844;2022-12-10T12:53:49;18.50;55.10
76878;DHT22;65843;50.692;12.844;2022-12-10T12:54:00;18.50;55.00
76878;DHT22;65843;50.692;12.844;2022-12-10T12:54:11;18.50;55.00
76878;DHT22;65843;50.692;12.844;2022-12-10T12:54:22;18.50;54.90
76878;DHT22;65843;50.692;12.844;2022-12-10T12:54:33;18.50;55.00
76878;DHT22;65843;50.692;12.844;2022-12-10T12:54:44;18.50;54.90
76878;DHT22;65843;50.692;12.844;2022-12-10T12:54:56;18.50;54.80
76878;DHT22;65843;50.692;12.844;2022-12-10T12:56:14;18.60;54.80
76878;DHT22;65843;50.692;12.844;2022-12-10T12:56:41;18.60;54.80
76878;DHT22;65843;50.692;12.844;2022-12-10T12:57:06;18.60;54.80
76878;DHT22;65843;50.692;12.844;2022-12-10T12:57:44;18.60;54.80
76878;DHT22;65843;50.692;12.844;2022-12-10T12:59:49;18.70;54.60
76878;DHT22;65843;50.692;12.844;2022-12-10T13:00:03;18.70;54.70
76878;DHT22;65843;50.692;12.844;2022-12-10T13:00:15;18.70;54.60
76878;DHT22;65843;50.692;12.844;2022-12-10T13:00:28;18.80;54.60
76878;DHT22;65843;50.692;12.844;2022-12-10T13:00:46;18.80;54.50
76878;DHT22;65843;50.692;12.844;2022-12-10T13:01:00;18.80;54.50
76878;DHT22;65843;50.692;12.844;2022-12-10T13:01:33;18.80;54.40
76878;DHT22;65843;50.692;12.844;2022-12-10T13:02:00;18.80;54.40
76878;DHT22;65843;50.692;12.844;2022-12-10T13:03:21;18.90;54.20
76878;DHT22;65843;50.692;12.844;2022-12-10T13:03:36;19.00;54.20
76878;DHT22;65843;50.692;12.844;2022-12-10T13:03:49;19.00;54.10
76878;DHT22;65843;50.692;12.844;2022-12-10T13:04:01;19.00;54.00
76878;DHT22;65843;50.692;12.844;2022-12-10T13:04:13;19.00;54.00
76878;DHT22;65843;50.692;12.844;2022-12-10T13:04:24;19.00;54.00
76878;DHT22;65843;50.692;12.844;2022-12-10T13:04:36;19.10;54.00
76878;DHT22;65843;50.692;12.844;2022-12-10T13:04:47;19.10;54.00
76878;DHT22;65843;50.692;12.844;2022-12-10T13:04:58;19.10;53.80
76878;DHT22;65843;50.692;12.844;2022-12-10T13:05:12;19.10;53.80
76878;DHT22;65843;50.692;12.844;2022-12-10T13:05:37;19.20;53.80
76878;DHT22;65843;50.692;12.844;2022-12-10T13:05:49;19.20;53.80
76878;DHT22;65843;50.692;12.844;2022-12-10T13:06:31;19.20;53.70
76878;DHT22;65843;50.692;12.844;2022-12-10T13:06:42;19.20;53.60
76878;DHT22;65843;50.692;12.844;2022-12-10T13:07:35;19.30;53.30
76878;DHT22;65843;50.692;12.844;2022-12-10T13:08:14;19.30;53.30
76878;DHT22;65843;50.692;12.844;2022-12-10T13:08:29;19.40;53.20
76878;DHT22;65843;50.692;12.844;2022-12-10T13:09:15;19.40;52.90
76878;DHT22;65843;50.692;12.844;2022-12-10T13:09:25;19.40;52.80
76878;DHT22;65843;50.692;12.844;2022-12-10T13:09:50;19.40;52.70
76878;DHT22;65843;50.692;12.844;2022-12-10T13:10:22;19.50;52.50
76878;DHT22;65843;50.692;12.844;2022-12-10T13:10:44;19.50;52.50
76878;DHT22;65843;50.692;12.844;2022-12-10T13:11:35;19.50;52.50
76878;DHT22;65843;50.692;12.844;2022-12-10T13:12:27;19.50;52.10
76878;DHT22;65843;50.692;12.844;2022-12-10T13:13:29;19.50;52.20
76878;DHT22;65843;50.692;12.844;2022-12-10T13:13:42;19.60;52.20
76878;DHT22;65843;50.692;12.844;2022-12-10T13:14:13;19.60;52.20
76878;DHT22;65843;50.692;12.844;2022-12-10T13:14:29;19.60;52.10
76878;DHT22;65843;50.692;12.844;2022-12-10T13:14:54;19.60;52.00
76878;DHT22;65843;50.692;12.844;2022-12-10T13:15:32;19.60;52.00
76878;DHT22;65843;50.692;12.844;2022-12-10T13:15:37;19.60;52.00
76878;DHT22;65843;50.692;12.844;2022-12-10T13:15:48;19.60;52.00
76878;DHT22;65843;50.692;12.844;2022-12-10T13:16:49;19.60;52.00
76878;DHT22;65843;50.692;12.844;2022-12-10T13:17:38;19.60;51.80
76878;DHT22;65843;50.692;12.844;2022-12-10T13:18:20;19.60;51.80
76878;DHT22;65843;50.692;12.844;2022-12-10T13:18:36;19.70;52.00
76878;DHT22;65843;50.692;12.844;2022-12-10T13:18:47;19.70;52.00
76878;DHT22;65843;50.692;12.844;2022-12-10T13:19:28;19.70;51.80
76878;DHT22;65843;50.692;12.844;2022-12-10T13:19:40;19.70;51.70
76878;DHT22;65843;50.692;12.844;2022-12-10T13:19:51;19.70;51.80
76878;DHT22;65843;50.692;12.844;2022-12-10T13:20:55;19.70;51.60
76878;DHT22;65843;50.692;12.844;2022-12-10T13:21:28;19.70;51.70
76878;DHT22;65843;50.692;12.844;2022-12-10T13:22:55;19.70;51.50
76878;DHT22;65843;50.692;12.844;2022-12-10T13:23:04;19.70;51.60
76878;DHT22;65843;50.692;12.844;2022-12-10T13:23:46;19.70;51.20
76878;DHT22;65843;50.692;12.844;2022-12-10T13:24:08;19.70;51.10
76878;DHT22;65843;50.692;12.844;2022-12-10T13:24:20;19.70;51.10
76878;DHT22;65843;50.692;12.844;2022-12-10T13:24:47;19.70;51.20
76878;DHT22;65843;50.692;12.844;2022-12-10T13:25:11;19.70;51.20
76878;DHT22;65843;50.692;12.844;2022-12-10T13:25:40;19.70;51.30
76878;DHT22;65843;50.692;12.844;2022-12-10T13:26:16;19.70;51.20
76878;DHT22;65843;50.692;12.844;2022-12-10T13:26:32;19.70;51.20
76878;DHT22;65843;50.692;12.844;2022-12-10T13:27:01;19.70;51.10
76878;DHT22;65843;50.692;12.844;2022-12-10T13:27:31;19.70;51.20
76878;DHT22;65843;50.692;12.844;2022-12-10T13:27:57;19.70;51.20
76878;DHT22;65843;50.692;12.844;2022-12-10T13:28:55;19.70;51.20
76878;DHT22;65843;50.692;12.844;2022-12-10T13:29:27;19.70;51.20
76878;DHT22;65843;50.692;12.844;2022-12-10T13:29:43;19.70;51.20
76878;DHT22;65843;50.692;12.844;2022-12-10T13:29:56;19.70;51.20
76878;DHT22;65843;50.692;12.844;2022-12-10T13:30:36;19.70;51.20
76878;DHT22;65843;50.692;12.844;2022-12-10T13:31:20;19.70;51.10
76878;DHT22;65843;50.692;12.844;2022-12-10T13:31:44;19.80;51.10
76878;DHT22;65843;50.692;12.844;2022-12-10T13:32:12;19.80;51.10
76878;DHT22;65843;50.692;12.844;2022-12-10T13:32:46;19.80;50.90
76878;DHT22;65843;50.692;12.844;2022-12-10T13:33:03;19.80;51.00
76878;DHT22;65843;50.692;12.844;2022-12-10T13:33:16;19.80;50.90
76878;DHT22;65843;50.692;12.844;2022-12-10T13:33:28;19.90;50.90
76878;DHT22;65843;50.692;12.844;2022-12-10T13:34:29;19.90;50.90
76878;DHT22;65843;50.692;12.844;2022-12-10T13:34:41;19.90;50.90
76878;DHT22;65843;50.692;12.844;2022-12-10T13:35:31;19.90;50.90
76878;DHT22;65843;50.692;12.844;2022-12-10T13:35:49;19.90;50.70
76878;DHT22;65843;50.692;12.844;2022-12-10T13:36:00;19.90;50.70
76878;DHT22;65843;50.692;12.844;2022-12-10T13:36:11;19.90;50.70
76878;DHT22;65843;50.692;12.844;2022-12-10T13:37:03;19.90;50.70
76878;DHT22;65843;50.692;12.844;2022-12-10T13:37:29;19.90;50.70
76878;DHT22;65843;50.692;12.844;2022-12-10T13:38:05;19.90;50.70
76878;DHT22;65843;50.692;12.844;2022-12-10T13:38:27;19.90;50.70
76878;DHT22;65843;50.692;12.844;2022-12-10T13:38:39;19.90;50.70
76878;DHT22;65843;50.692;12.844;2022-12-10T13:38:57;19.90;50.70
76878;DHT22;65843;50.692;12.844;2022-12-10T13:39:21;19.90;50.70
76878;DHT22;65843;50.692;12.844;2022-12-10T13:39:34;19.90;50.90
76878;DHT22;65843;50.692;12.844;2022-12-10T13:39:47;19.90;50.90
76878;DHT22;65843;50.692;12.844;2022-12-10T13:40:09;19.90;50.90
76878;DHT22;65843;50.692;12.844;2022-12-10T13:40:38;19.90;50.90
76878;DHT22;65843;50.692;12.844;2022-12-10T13:41:24;19.90;50.90
76878;DHT22;65843;50.692;12.844;2022-12-10T13:42:36;19.90;51.10
76878;DHT22;65843;50.692;12.844;2022-12-10T13:43:58;19.80;51.00
76878;DHT22;65843;50.692;12.844;2022-12-10T13:44:35;19.80;51.10
76878;DHT22;65843;50.692;12.844;2022-12-10T13:45:03;19.80;51.00
76878;DHT22;65843;50.692;12.844;2022-12-10T13:45:33;19.70;51.30
76878;DHT22;65843;50.692;12.844;2022-12-10T13:45:45;19.80;51.40
76878;DHT22;65843;50.692;12.844;2022-12-10T13:46:35;19.70;51.20
76878;DHT22;65843;50.692;12.844;2022-12-10T13:47:25;19.70;51.00
76878;DHT22;65843;50.692;12.844;2022-12-10T13:47:46;19.70;51.30
76878;DHT22;65843;50.692;12.844;2022-12-10T13:48:41;19.70;51.60
76878;DHT22;65843;50.692;12.844;2022-12-10T13:48:53;19.70;51.40
76878;DHT22;65843;50.692;12.844;2022-12-10T13:49:05;19.70;51.50
76878;DHT22;65843;50.692;12.844;2022-12-10T13:49:20;19.70;51.50
76878;DHT22;65843;50.692;12.844;2022-12-10T13:49:35;19.70;51.40
76878;DHT22;65843;50.692;12.844;2022-12-10T13:49:55;19.70;51.40
76878;DHT22;65843;50.692;12.844;2022-12-10T13:50:17;19.70;51.50
76878;DHT22;65843;50.692;12.844;2022-12-10T13:51:16;19.70;51.40
76878;DHT22;65843;50.692;12.844;2022-12-10T13:51:58;19.70;51.40
76878;DHT22;65843;50.692;12.844;2022-12-10T13:52:13;19.70;51.50
76878;DHT22;65843;50.692;12.844;2022-12-10T13:52:42;19.70;51.40
76878;DHT22;65843;50.692;12.844;2022-12-10T13:53:52;19.70;51.40
76878;DHT22;65843;50.692;12.844;2022-12-10T13:55:38;19.80;51.20
76878;DHT22;65843;50.692;12.844;2022-12-10T13:55:55;19.80;51.30
76878;DHT22;65843;50.692;12.844;2022-12-10T13:56:26;19.70;51.20
76878;DHT22;65843;50.692;12.844;2022-12-10T13:56:59;19.70;51.20
76878;DHT22;65843;50.692;12.844;2022-12-10T13:57:30;19.70;51.20
76878;DHT22;65843;50.692;12.844;2022-12-10T13:59:16;19.70;51.00
76878;DHT22;65843;50.692;12.844;2022-12-10T14:00:28;19.70;50.90
76878;DHT22;65843;50.692;12.844;2022-12-10T14:01:38;19.70;50.80
76878;DHT22;65843;50.692;12.844;2022-12-10T14:02:41;19.70;50.80
76878;DHT22;65843;50.692;12.844;2022-12-10T14:03:34;19.70;50.90
76878;DHT22;65843;50.692;12.844;2022-12-10T14:05:04;19.70;50.80
76878;DHT22;65843;50.692;12.844;2022-12-10T14:06:23;19.70;50.90
76878;DHT22;65843;50.692;12.844;2022-12-10T14:06:35;19.70;50.90
76878;DHT22;65843;50.692;12.844;2022-12-10T14:06:47;19.70;50.80
76878;DHT22;65843;50.692;12.844;2022-12-10T14:06:59;19.70;50.70
76878;DHT22;65843;50.692;12.844;2022-12-10T14:07:11;19.70;50.70
76878;DHT22;65843;50.692;12.844;2022-12-10T14:07:23;19.70;50.90
76878;DHT22;65843;50.692;12.844;2022-12-10T14:07:35;19.70;50.80
76878;DHT22;65843;50.692;12.844;2022-12-10T14:07:47;19.70;50.70
76878;DHT22;65843;50.692;12.844;2022-12-10T14:08:00;19.70;50.70
76878;DHT22;65843;50.692;12.844;2022-12-10T14:08:13;19.70;50.70
76878;DHT22;65843;50.692;12.844;2022-12-10T14:08:30;19.70;50.70
76878;DHT22;65843;50.692;12.844;2022-12-10T14:08:46;19.70;50.70
76878;DHT22;65843;50.692;12.844;2022-12-10T14:09:20;19.70;50.60
76878;DHT22;65843;50.692;12.844;2022-12-10T14:09:33;19.70;50.70
76878;DHT22;65843;50.692;12.844;2022-12-10T14:09:50;19.70;50.70
76878;DHT22;65843;50.692;12.844;2022-12-10T14:10:02;19.70;50.70
76878;DHT22;65843;50.692;12.844;2022-12-10T14:10:14;19.70;50.70
76878;DHT22;65843;50.692;12.844;2022-12-10T14:10:27;19.70;50.70
76878;DHT22;65843;50.692;12.844;2022-12-10T14:10:40;19.70;50.50
76878;DHT22;65843;50.692;12.844;2022-12-10T14:10:51;19.70;50.60
76878;DHT22;65843;50.692;12.844;2022-12-10T14:11:04;19.70;50.50
76878;DHT22;65843;50.692;12.844;2022-12-10T14:11:23;19.70;50.60
76878;DHT22;65843;50.692;12.844;2022-12-10T14:11:36;19.70;50.60
76878;DHT22;65843;50.692;12.844;2022-12-10T14:11:53;19.70;50.60
76878;DHT22;65843;50.692;12.844;2022-12-10T14:12:06;19.70;50.60
76878;DHT22;65843;50.692;12.844;2022-12-10T14:12:19;19.70;50.70
76878;DHT22;65843;50.692;12.844;2022-12-10T14:12:34;19.70;50.60
76878;DHT22;65843;50.692;12.844;2022-12-10T14:12:46;19.70;50.70
76878;DHT22;65843;50.692;12.844;2022-12-10T14:12:57;19.70;50.50
76878;DHT22;65843;50.692;12.844;2022-12-10T14:13:10;19.70;50.60
76878;DHT22;65843;50.692;12.844;2022-12-10T14:13:23;19.70;50.50
76878;DHT22;65843;50.692;12.844;2022-12-10T14:13:40;19.70;50.50
76878;DHT22;65843;50.692;12.844;2022-12-10T14:13:54;19.70;50.50
76878;DHT22;65843;50.692;12.844;2022-12-10T14:14:13;19.70;50.60
76878;DHT22;65843;50.692;12.844;2022-12-10T14:14:32;19.70;50.50
76878;DHT22;65843;50.692;12.844;2022-12-10T14:14:50;19.70;50.60
76878;DHT22;65843;50.692;12.844;2022-12-10T14:15:03;19.70;50.60
76878;DHT22;65843;50.692;12.844;2022-12-10T14:15:25;19.70;50.50
76878;DHT22;65843;50.692;12.844;2022-12-10T14:15:37;19.70;50.60
76878;DHT22;65843;50.692;12.844;2022-12-10T14:15:54;19.70;50.50
76878;DHT22;65843;50.692;12.844;2022-12-10T14:16:09;19.70;50.50
76878;DHT22;65843;50.692;12.844;2022-12-10T14:16:21;19.70;50.40
76878;DHT22;65843;50.692;12.844;2022-12-10T14:16:34;19.70;50.50
76878;DHT22;65843;50.692;12.844;2022-12-10T14:16:46;19.70;50.50
76878;DHT22;65843;50.692;12.844;2022-12-10T14:17:04;19.70;50.50
76878;DHT22;65843;50.692;12.844;2022-12-10T14:17:16;19.70;50.50
76878;DHT22;65843;50.692;12.844;2022-12-10T14:17:32;19.70;50.40
76878;DHT22;65843;50.692;12.844;2022-12-10T14:17:44;19.70;50.50
76878;DHT22;65843;50.692;12.844;2022-12-10T14:18:08;19.70;50.50
76878;DHT22;65843;50.692;12.844;2022-12-10T14:18:20;19.70;50.50
76878;DHT22;65843;50.692;12.844;2022-12-10T14:18:32;19.70;50.50
76878;DHT22;65843;50.692;12.844;2022-12-10T14:18:51;19.70;50.40
76878;DHT22;65843;50.692;12.844;2022-12-10T14:19:06;19.70;50.40
76878;DHT22;65843;50.692;12.844;2022-12-10T14:19:26;19.70;50.40
76878;DHT22;65843;50.692;12.844;2022-12-10T14:19:37;19.70;50.40
76878;DHT22;65843;50.692;12.844;2022-12-10T14:19:49;19.70;50.40
76878;DHT22;65843;50.692;12.844;2022-12-10T14:20:02;19.70;50.30
76878;DHT22;65843;50.692;12.844;2022-12-10T14:20:16;19.70;50.30
76878;DHT22;65843;50.692;12.844;2022-12-10T14:20:29;19.70;50.30
76878;DHT22;65843;50.692;12.844;2022-12-10T14:20:43;19.70;50.30
76878;DHT22;65843;50.692;12.844;2022-12-10T14:20:55;19.70;50.40
76878;DHT22;65843;50.692;12.844;2022-12-10T14:21:06;19.70;50.40
76878;DHT22;65843;50.692;12.844;2022-12-10T14:21:17;19.70;50.30
76878;DHT22;65843;50.692;12.844;2022-12-10T14:21:35;19.70;50.30
76878;DHT22;65843;50.692;12.844;2022-12-10T14:21:46;19.70;50.30
76878;DHT22;65843;50.692;12.844;2022-12-10T14:21:57;19.70;50.30
76878;DHT22;65843;50.692;12.844;2022-12-10T14:22:12;19.70;50.30
76878;DHT22;65843;50.692;12.844;2022-12-10T14:22:30;19.70;50.30
76878;DHT22;65843;50.692;12.844;2022-12-10T14:22:46;19.70;50.30
76878;DHT22;65843;50.692;12.844;2022-12-10T14:22:57;19.70;50.20
76878;DHT22;65843;50.692;12.844;2022-12-10T14:23:31;19.70;50.30
76878;DHT22;65843;50.692;12.844;2022-12-10T14:23:49;19.70;50.30
76878;DHT22;65843;50.692;12.844;2022-12-10T14:23:59;19.70;50.30
76878;DHT22;65843;50.692;12.844;2022-12-10T14:24:26;19.70;50.30
76878;DHT22;65843;50.692;12.844;2022-12-10T14:24:38;19.70;50.30
76878;DHT22;65843;50.692;12.844;2022-12-10T14:24:50;19.70;50.30
76878;DHT22;65843;50.692;12.844;2022-12-10T14:25:03;19.70;50.20
76878;DHT22;65843;50.692;12.844;2022-12-10T14:25:16;19.70;50.20
76878;DHT22;65843;50.692;12.844;2022-12-10T14:25:28;19.70;50.20
76878;DHT22;65843;50.692;12.844;2022-12-10T14:25:42;19.70;50.20
76878;DHT22;65843;50.692;12.844;2022-12-10T14:25:53;19.70;50.10
76878;DHT22;65843;50.692;12.844;2022-12-10T14:26:15;19.70;50.10
76878;DHT22;65843;50.692;12.844;2022-12-10T14:26:28;19.70;50.20
76878;DHT22;65843;50.692;12.844;2022-12-10T14:26:39;19.70;50.10
76878;DHT22;65843;50.692;12.844;2022-12-10T14:26:55;19.70;50.10
76878;DHT22;65843;50.692;12.844;2022-12-10T14:27:14;19.70;50.10
76878;DHT22;65843;50.692;12.844;2022-12-10T14:27:25;19.70;50.10
76878;DHT22;65843;50.692;12.844;2022-12-10T14:27:36;19.70;50.10
76878;DHT22;65843;50.692;12.844;2022-12-10T14:27:51;19.70;50.10
76878;DHT22;65843;50.692;12.844;2022-12-10T14:28:02;19.70;50.10
76878;DHT22;65843;50.692;12.844;2022-12-10T14:28:17;19.70;50.10
76878;DHT22;65843;50.692;12.844;2022-12-10T14:28:29;19.70;50.00
76878;DHT22;65843;50.692;12.844;2022-12-10T14:28:41;19.70;50.10
76878;DHT22;65843;50.692;12.844;2022-12-10T14:28:56;19.70;50.10
76878;DHT22;65843;50.692;12.844;2022-12-10T14:29:19;19.70;50.00
76878;DHT22;65843;50.692;12.844;2022-12-10T14:29:30;19.70;50.00
76878;DHT22;65843;50.692;12.844;2022-12-10T14:29:45;19.70;49.90
76878;DHT22;65843;50.692;12.844;2022-12-10T14:30:06;19.70;50.00
76878;DHT22;65843;50.692;12.844;2022-12-10T14:30:25;19.70;50.00
76878;DHT22;65843;50.692;12.844;2022-12-10T14:30:42;19.80;50.00
76878;DHT22;65843;50.692;12.844;2022-12-10T14:30:53;19.70;50.00
76878;DHT22;65843;50.692;12.844;2022-12-10T14:31:05;19.80;49.90
76878;DHT22;65843;50.692;12.844;2022-12-10T14:31:18;19.80;49.90
76878;DHT22;65843;50.692;12.844;2022-12-10T14:31:31;19.80;49.90
76878;DHT22;65843;50.692;12.844;2022-12-10T14:31:44;19.80;50.00
76878;DHT22;65843;50.692;12.844;2022-12-10T14:31:57;19.80;49.90
76878;DHT22;65843;50.692;12.844;2022-12-10T14:32:12;19.80;49.90
76878;DHT22;65843;50.692;12.844;2022-12-10T14:32:30;19.80;49.90
76878;DHT22;65843;50.692;12.844;2022-12-10T14:32:42;19.80;49.80
76878;DHT22;65843;50.692;12.844;2022-12-10T14:32:53;19.80;49.90
76878;DHT22;65843;50.692;12.844;2022-12-10T14:33:05;19.80;49.80
76878;DHT22;65843;50.692;12.844;2022-12-10T14:33:17;19.80;49.90
76878;DHT22;65843;50.692;12.844;2022-12-10T14:33:28;19.80;49.90
76878;DHT22;65843;50.692;12.844;2022-12-10T14:33:39;19.80;49.90
76878;DHT22;65843;50.692;12.844;2022-12-10T14:33:50;19.80;49.80
76878;DHT22;65843;50.692;12.844;2022-12-10T14:34:04;19.80;49.80
76878;DHT22;65843;50.692;12.844;2022-12-10T14:34:17;19.80;49.90
76878;DHT22;65843;50.692;12.844;2022-12-10T14:34:28;19.80;49.90
76878;DHT22;65843;50.692;12.844;2022-12-10T14:34:39;19.80;49.80
76878;DHT22;65843;50.692;12.844;2022-12-10T14:34:52;19.80;49.90
76878;DHT22;65843;50.692;12.844;2022-12-10T14:35:05;19.80;49.80
76878;DHT22;65843;50.692;12.844;2022-12-10T14:35:21;19.80;49.80
76878;DHT22;65843;50.692;12.844;2022-12-10T14:35:32;19.80;49.80
76878;DHT22;65843;50.692;12.844;2022-12-10T14:35:46;19.80;49.80
76878;DHT22;65843;50.692;12.844;2022-12-10T14:35:58;19.80;49.80
76878;DHT22;65843;50.692;12.844;2022-12-10T14:36:12;19.80;49.70
76878;DHT22;65843;50.692;12.844;2022-12-10T14:36:26;19.80;49.70
76878;DHT22;65843;50.692;12.844;2022-12-10T14:36:39;19.80;49.60
76878;DHT22;65843;50.692;12.844;2022-12-10T14:36:56;19.80;49.70
76878;DHT22;65843;50.692;12.844;2022-12-10T14:37:09;19.80;49.70
76878;DHT22;65843;50.692;12.844;2022-12-10T14:37:23;19.80;49.70
76878;DHT22;65843;50.692;12.844;2022-12-10T14:37:36;19.80;49.80
76878;DHT22;65843;50.692;12.844;2022-12-10T14:37:48;19.80;49.70
76878;DHT22;65843;50.692;12.844;2022-12-10T14:37:59;19.80;49.70
76878;DHT22;65843;50.692;12.844;2022-12-10T14:38:16;19.80;49.70
76878;DHT22;65843;50.692;12.844;2022-12-10T14:38:31;19.80;49.70
76878;DHT22;65843;50.692;12.844;2022-12-10T14:38:44;19.80;49.60
76878;DHT22;65843;50.692;12.844;2022-12-10T14:38:56;19.80;49.60
76878;DHT22;65843;50.692;12.844;2022-12-10T14:39:20;19.80;49.70
76878;DHT22;65843;50.692;12.844;2022-12-10T14:39:32;19.80;49.70
76878;DHT22;65843;50.692;12.844;2022-12-10T14:39:44;19.80;49.70
76878;DHT22;65843;50.692;12.844;2022-12-10T14:39:55;19.80;49.70
76878;DHT22;65843;50.692;12.844;2022-12-10T14:40:06;19.80;49.70
76878;DHT22;65843;50.692;12.844;2022-12-10T14:40:39;19.80;49.60
76878;DHT22;65843;50.692;12.844;2022-12-10T14:40:48;19.80;49.70
76878;DHT22;65843;50.692;12.844;2022-12-10T14:41:00;19.80;49.70
76878;DHT22;65843;50.692;12.844;2022-12-10T14:41:11;19.80;49.60
76878;DHT22;65843;50.692;12.844;2022-12-10T14:41:24;19.80;49.70
76878;DHT22;65843;50.692;12.844;2022-12-10T14:41:36;19.80;49.60
76878;DHT22;65843;50.692;12.844;2022-12-10T14:41:47;19.80;49.70
76878;DHT22;65843;50.692;12.844;2022-12-10T14:41:59;19.80;49.70
76878;DHT22;65843;50.692;12.844;2022-12-10T14:42:12;19.80;49.70
76878;DHT22;65843;50.692;12.844;2022-12-10T14:42:25;19.80;49.70
76878;DHT22;65843;50.692;12.844;2022-12-10T14:42:39;19.80;49.50
76878;DHT22;65843;50.692;12.844;2022-12-10T14:42:59;19.80;49.60
76878;DHT22;65843;50.692;12.844;2022-12-10T14:43:14;19.80;49.50
76878;DHT22;65843;50.692;12.844;2022-12-10T14:43:32;19.80;49.60
76878;DHT22;65843;50.692;12.844;2022-12-10T14:43:46;19.80;49.60
76878;DHT22;65843;50.692;12.844;2022-12-10T14:43:57;19.80;49.60
76878;DHT22;65843;50.692;12.844;2022-12-10T14:44:11;19.80;49.50
76878;DHT22;65843;50.692;12.844;2022-12-10T14:44:23;19.80;49.40
76878;DHT22;65843;50.692;12.844;2022-12-10T14:44:34;19.80;49.50
76878;DHT22;65843;50.692;12.844;2022-12-10T14:44:48;19.80;49.50
76878;DHT22;65843;50.692;12.844;2022-12-10T14:45:03;19.80;49.60
76878;DHT22;65843;50.692;12.844;2022-12-10T14:45:15;19.80;49.40
76878;DHT22;65843;50.692;12.844;2022-12-10T14:45:26;19.80;49.50
76878;DHT22;65843;50.692;12.844;2022-12-10T14:45:43;19.80;49.40
76878;DHT22;65843;50.692;12.844;2022-12-10T14:45:59;19.80;49.50
76878;DHT22;65843;50.692;12.844;2022-12-10T14:46:14;19.80;49.60
76878;DHT22;65843;50.692;12.844;2022-12-10T14:46:27;19.80;49.60
76878;DHT22;65843;50.692;12.844;2022-12-10T14:46:38;19.70;49.60
76878;DHT22;65843;50.692;12.844;2022-12-10T14:46:49;19.70;49.60
76878;DHT22;65843;50.692;12.844;2022-12-10T14:47:12;19.70;49.60
76878;DHT22;65843;50.692;12.844;2022-12-10T14:47:23;19.70;49.60
76878;DHT22;65843;50.692;12.844;2022-12-10T14:47:37;19.70;49.60
76878;DHT22;65843;50.692;12.844;2022-12-10T14:47:49;19.80;49.60
76878;DHT22;65843;50.692;12.844;2022-12-10T14:48:00;19.70;49.60
76878;DHT22;65843;50.692;12.844;2022-12-10T14:48:11;19.80;49.60
76878;DHT22;65843;50.692;12.844;2022-12-10T14:48:22;19.70;49.60
76878;DHT22;65843;50.692;12.844;2022-12-10T14:48:40;19.70;49.50
76878;DHT22;65843;50.692;12.844;2022-12-10T14:48:53;19.80;49.50
76878;DHT22;65843;50.692;12.844;2022-12-10T14:49:06;19.70;49.50
76878;DHT22;65843;50.692;12.844;2022-12-10T14:49:23;19.80;49.60
76878;DHT22;65843;50.692;12.844;2022-12-10T14:49:37;19.80;49.60
76878;DHT22;65843;50.692;12.844;2022-12-10T14:49:49;19.70;49.50
76878;DHT22;65843;50.692;12.844;2022-12-10T14:50:01;19.70;49.50
76878;DHT22;65843;50.692;12.844;2022-12-10T14:50:13;19.70;49.50
76878;DHT22;65843;50.692;12.844;2022-12-10T14:50:24;19.70;49.60
76878;DHT22;65843;50.692;12.844;2022-12-10T14:50:38;19.70;49.50
76878;DHT22;65843;50.692;12.844;2022-12-10T14:50:49;19.70;49.50
76878;DHT22;65843;50.692;12.844;2022-12-10T14:51:04;19.70;49.50
76878;DHT22;65843;50.692;12.844;2022-12-10T14:51:16;19.70;49.60
76878;DHT22;65843;50.692;12.844;2022-12-10T14:51:33;19.70;49.50
76878;DHT22;65843;50.692;12.844;2022-12-10T14:51:44;19.70;49.60
76878;DHT22;65843;50.692;12.844;2022-12-10T14:51:57;19.70;49.60
76878;DHT22;65843;50.692;12.844;2022-12-10T14:52:14;19.70;49.60
76878;DHT22;65843;50.692;12.844;2022-12-10T14:52:31;19.70;49.50
76878;DHT22;65843;50.692;12.844;2022-12-10T14:52:44;19.70;49.60
76878;DHT22;65843;50.692;12.844;2022-12-10T14:52:55;19.70;49.60
76878;DHT22;65843;50.692;12.844;2022-12-10T14:53:11;19.70;49.60
76878;DHT22;65843;50.692;12.844;2022-12-10T14:53:24;19.70;49.60
76878;DHT22;65843;50.692;12.844;2022-12-10T14:53:35;19.70;49.60
76878;DHT22;65843;50.692;12.844;2022-12-10T14:53:47;19.70;49.60
76878;DHT22;65843;50.692;12.844;2022-12-10T14:53:58;19.70;49.60
76878;DHT22;65843;50.692;12.844;2022-12-10T14:54:56;19.70;49.60
76878;DHT22;65843;50.692;12.844;2022-12-10T14:55:11;19.70;49.60
76878;DHT22;65843;50.692;12.844;2022-12-10T14:55:22;19.70;49.60
76878;DHT22;65843;50.692;12.844;2022-12-10T14:55:34;19.70;49.60
76878;DHT22;65843;50.692;12.844;2022-12-10T14:55:46;19.70;49.60
76878;DHT22;65843;50.692;12.844;2022-12-10T14:55:59;19.70;49.60
76878;DHT22;65843;50.692;12.844;2022-12-10T14:56:13;19.70;49.60
76878;DHT22;65843;50.692;12.844;2022-12-10T14:56:38;19.70;49.60
76878;DHT22;65843;50.692;12.844;2022-12-10T14:56:51;19.70;49.70
76878;DHT22;65843;50.692;12.844;2022-12-10T14:57:22;19.70;49.60
76878;DHT22;65843;50.692;12.844;2022-12-10T14:57:37;19.70;49.60
76878;DHT22;65843;50.692;12.844;2022-12-10T14:57:50;19.70;49.70
76878;DHT22;65843;50.692;12.844;2022-12-10T14:58:01;19.70;49.70
76878;DHT22;65843;50.692;12.844;2022-12-10T14:58:17;19.60;49.70
76878;DHT22;65843;50.692;12.844;2022-12-10T14:59:14;19.60;49.70
76878;DHT22;65843;50.692;12.844;2022-12-10T14:59:29;19.60;49.70
76878;DHT22;65843;50.692;12.844;2022-12-10T14:59:50;19.60;49.70
76878;DHT22;65843;50.692;12.844;2022-12-10T15:00:14;19.60;49.70
76878;DHT22;65843;50.692;12.844;2022-12-10T15:00:27;19.60;49.70
76878;DHT22;65843;50.692;12.844;2022-12-10T15:00:38;19.60;49.70
76878;DHT22;65843;50.692;12.844;2022-12-10T15:00:50;19.60;49.70
76878;DHT22;65843;50.692;12.844;2022-12-10T15:01:01;19.50;49.70
76878;DHT22;65843;50.692;12.844;2022-12-10T15:01:15;19.50;49.70
76878;DHT22;65843;50.692;12.844;2022-12-10T15:01:31;19.50;49.70
76878;DHT22;65843;50.692;12.844;2022-12-10T15:01:45;19.50;49.70
76878;DHT22;65843;50.692;12.844;2022-12-10T15:01:57;19.50;49.70
76878;DHT22;65843;50.692;12.844;2022-12-10T15:02:27;19.60;49.70